Hillsdale, Oklahoma
Current Conditions -  °F | °C
As of 9:50 AM on Friday 31 Oct 2014 (Local Time) from KWDG Reporting Station
Few Clouds Few Clouds  
Wind Chill: 39°   Ceiling: Unl
Heat Index: 46°   Visibility: 10mi
Dew Point: 37°   Wind: 22mph
Humidity: 71%   Direction: 350°N
Pressure: 30.45"   Gusts: 30mph
Location:  36.56°N, 97.99°W
Report Text: KWDG 311450Z 35019G26KT 10SM FEW030 FEW180 08/03 A3045
Loading
Personal Weather Stations






























Interactive Weather Map
Tropical Storm Tracking
New forecast layout! Learn more

10-Day Weather Forecast

Advertisements
Track Severe Weather on mobile